Time;durP1;ratioP1;P1;durP2;ratioP2;P2;SDS_P1;SDS_P2;PMS_P1;PMS_P2;Temp;Humidity;BMP_temperature;BMP_pressure;BME280_temperature;BME280_humidity;BME280_pressure;Samples;Min_cycle;Max_cycle;Signal;HPM_P1;HPM_P2
2022/10/14 00:00:16;;;;;;;8.73;3.42;;;;;;;;;;5076098;28;20040;-73
2022/10/14 00:02:42;;;;;;;4.90;2.70;;;;;;;;;;5076059;28;20405;-72
2022/10/14 00:05:08;;;;;;;6.72;3.47;;;;;;;;;;5075983;28;20040;-73
2022/10/14 00:07:35;;;;;;;4.57;3.17;;;;;;;;;;5075891;28;20036;-73
2022/10/14 00:10:01;;;;;;;5.65;3.22;;;;;;;;;;5075576;28;20032;-72
2022/10/14 00:12:30;;;;;;;7.22;3.08;;;;;;;;;;5076223;28;20052;-72
2022/10/14 00:14:56;;;;;;;7.00;3.20;;;;;;;;;;5075288;28;20049;-72
2022/10/14 00:17:23;;;;;;;8.57;2.92;;;;;;;;;;5075767;28;20071;-72
2022/10/14 00:19:49;;;;;;;8.15;3.05;;;;;;;;;;5075439;28;20044;-73
2022/10/14 00:22:15;;;;;;;5.28;2.70;;;;;;;;;;5075945;28;20049;-73
2022/10/14 00:24:41;;;;;;;9.57;3.22;;;;;;;;;;5075539;28;20063;-73
2022/10/14 00:27:08;;;;;;;6.35;2.65;;;;;;;;;;5075556;28;20120;-73
2022/10/14 00:29:34;;;;;;;4.55;2.70;;;;;;;;;;5075317;28;20036;-72
2022/10/14 00:32:00;;;;;;;3.60;2.55;;;;;;;;;;5074001;28;20044;-72
2022/10/14 00:34:26;;;;;;;3.92;2.70;;;;;;;;;;5074601;28;20372;-73
2022/10/14 00:36:52;;;;;;;5.45;2.60;;;;;;;;;;5075347;28;20036;-73
2022/10/14 00:39:18;;;;;;;5.28;2.72;;;;;;;;;;5075561;28;20205;-72
2022/10/14 00:41:46;;;;;;;6.22;2.58;;;;;;;;;;5075250;28;20057;-73
2022/10/14 00:44:15;;;;;;;4.88;2.95;;;;;;;;;;5075593;28;20055;-73
2022/10/14 00:46:42;;;;;;;5.20;2.50;;;;;;;;;;5075188;28;20036;-73
2022/10/14 00:49:17;;;;;;;5.25;2.70;;;;;;;;;;5075230;28;20148;-73
2022/10/14 00:51:47;;;;;;;6.65;2.88;;;;;;;;;;5075078;28;20036;-73
2022/10/14 00:54:14;;;;;;;5.90;2.80;;;;;;;;;;5075680;28;20055;-73
2022/10/14 00:56:40;;;;;;;4.63;2.42;;;;;;;;;;5075716;28;20560;-73
2022/10/14 00:59:07;;;;;;;5.65;2.38;;;;;;;;;;5074780;28;20391;-73
2022/10/14 01:01:33;;;;;;;3.22;2.40;;;;;;;;;;5075512;28;20044;-73
2022/10/14 01:03:59;;;;;;;2.97;2.17;;;;;;;;;;5074916;28;20119;-73
2022/10/14 01:06:25;;;;;;;3.35;2.17;;;;;;;;;;5075128;28;20047;-73
2022/10/14 01:08:52;;;;;;;3.75;1.70;;;;;;;;;;5075617;28;20029;-73
2022/10/14 01:11:20;;;;;;;2.70;1.63;;;;;;;;;;5075377;28;20053;-73
2022/10/14 01:13:55;;;;;;;2.10;1.50;;;;;;;;;;5074586;28;20055;-73
2022/10/14 01:16:44;;;;;;;3.03;1.90;;;;;;;;;;5075044;28;20120;-73
2022/10/14 01:19:28;;;;;;;3.80;2.10;;;;;;;;;;5074623;28;20045;-73
2022/10/14 01:22:29;;;;;;;3.28;1.60;;;;;;;;;;5075587;28;20048;-73
2022/10/14 01:25:05;;;;;;;3.05;1.50;;;;;;;;;;5032422;28;20045;-73
2022/10/14 01:27:31;;;;;;;5.93;1.73;;;;;;;;;;5069981;28;20437;-73
2022/10/14 01:30:09;;;;;;;2.17;1.45;;;;;;;;;;5074717;28;20040;-73
2022/10/14 01:32:45;;;;;;;2.55;1.90;;;;;;;;;;5074658;28;20059;-73
2022/10/14 01:35:11;;;;;;;3.65;1.50;;;;;;;;;;5074579;28;20044;-73
2022/10/14 01:37:39;;;;;;;2.38;1.85;;;;;;;;;;5074502;28;20039;-73
2022/10/14 01:40:07;;;;;;;3.53;2.00;;;;;;;;;;5074440;28;20170;-73
2022/10/14 01:42:34;;;;;;;2.90;1.48;;;;;;;;;;5075052;28;20055;-72
2022/10/14 01:45:03;;;;;;;2.47;1.60;;;;;;;;;;5074002;28;20048;-73
2022/10/14 01:47:30;;;;;;;2.33;1.67;;;;;;;;;;5074947;28;20102;-73
2022/10/14 01:49:58;;;;;;;4.78;1.63;;;;;;;;;;5074067;28;20365;-73
2022/10/14 01:52:30;;;;;;;3.65;2.00;;;;;;;;;;5074911;28;20048;-73
2022/10/14 01:54:59;;;;;;;1.80;1.70;;;;;;;;;;5074253;28;20048;-72
2022/10/14 01:57:27;;;;;;;4.32;2.13;;;;;;;;;;5074854;28;20041;-72
2022/10/14 01:59:54;;;;;;;1.48;1.38;;;;;;;;;;5074120;28;20062;-72
2022/10/14 02:02:21;;;;;;;2.47;1.40;;;;;;;;;;5074479;28;20076;-72
2022/10/14 02:04:47;;;;;;;2.17;1.25;;;;;;;;;;5073958;28;20044;-72
2022/10/14 02:07:24;;;;;;;7.00;1.95;;;;;;;;;;5074194;28;20036;-72
2022/10/14 02:09:59;;;;;;;3.05;1.42;;;;;;;;;;5074029;28;20048;-72
2022/10/14 02:12:37;;;;;;;2.90;1.50;;;;;;;;;;5074755;28;20037;-73
2022/10/14 02:15:22;;;;;;;2.83;1.75;;;;;;;;;;5073838;28;20051;-72
2022/10/14 02:17:54;;;;;;;2.47;1.60;;;;;;;;;;5074247;28;20043;-72
2022/10/14 02:20:23;;;;;;;3.15;1.80;;;;;;;;;;5073771;28;20486;-72
2022/10/14 02:22:53;;;;;;;2.88;1.88;;;;;;;;;;5074373;28;20068;-72
2022/10/14 02:25:21;;;;;;;4.00;2.20;;;;;;;;;;5074012;28;20079;-72
2022/10/14 02:27:48;;;;;;;6.45;2.08;;;;;;;;;;5073562;28;20047;-72
2022/10/14 02:30:15;;;;;;;2.30;1.80;;;;;;;;;;5073696;28;20045;-72
2022/10/14 02:32:42;;;;;;;2.83;1.98;;;;;;;;;;5074220;28;20060;-72
2022/10/14 02:35:10;;;;;;;5.47;2.28;;;;;;;;;;5074317;28;20041;-73
2022/10/14 02:37:36;;;;;;;6.88;2.17;;;;;;;;;;5074464;28;20059;-72
2022/10/14 02:40:09;;;;;;;4.20;2.20;;;;;;;;;;5073883;28;20036;-72
2022/10/14 02:42:35;;;;;;;3.20;2.20;;;;;;;;;;5074489;28;20052;-73
2022/10/14 02:45:02;;;;;;;2.95;2.13;;;;;;;;;;5073771;28;20076;-72
2022/10/14 02:47:28;;;;;;;3.75;2.40;;;;;;;;;;5074121;28;20098;-72
2022/10/14 02:49:54;;;;;;;3.55;2.03;;;;;;;;;;5074079;28;20043;-73
2022/10/14 02:52:20;;;;;;;3.22;2.42;;;;;;;;;;5074113;28;20128;-72
2022/10/14 02:54:46;;;;;;;2.40;2.20;;;;;;;;;;5073834;28;20129;-72
2022/10/14 02:57:12;;;;;;;2.70;2.25;;;;;;;;;;5075108;28;20041;-73
2022/10/14 02:59:39;;;;;;;2.47;2.28;;;;;;;;;;5077117;28;20040;-73
2022/10/14 03:02:06;;;;;;;3.47;2.10;;;;;;;;;;5077200;28;20356;-73
2022/10/14 03:04:33;;;;;;;2.25;1.58;;;;;;;;;;5077406;28;20438;-73
2022/10/14 03:07:00;;;;;;;1.80;1.70;;;;;;;;;;5077447;28;20048;-73
2022/10/14 03:09:26;;;;;;;6.00;2.00;;;;;;;;;;5077384;28;20041;-72
2022/10/14 03:11:52;;;;;;;3.53;1.63;;;;;;;;;;5077367;28;20475;-73
2022/10/14 03:14:18;;;;;;;1.90;1.80;;;;;;;;;;5077294;28;20497;-73
2022/10/14 03:16:44;;;;;;;1.92;1.58;;;;;;;;;;5077268;28;20044;-73
2022/10/14 03:19:10;;;;;;;2.90;1.67;;;;;;;;;;5077248;28;20048;-73
2022/10/14 03:21:36;;;;;;;2.95;2.13;;;;;;;;;;5077172;28;20091;-73
2022/10/14 03:24:02;;;;;;;1.92;1.80;;;;;;;;;;5077197;28;20076;-73
2022/10/14 03:26:29;;;;;;;1.92;1.70;;;;;;;;;;5076760;28;20403;-73
2022/10/14 03:28:55;;;;;;;2.00;1.50;;;;;;;;;;5076879;28;20040;-73
2022/10/14 03:31:21;;;;;;;1.42;1.20;;;;;;;;;;5077288;28;20048;-73
2022/10/14 03:33:47;;;;;;;1.10;1.00;;;;;;;;;;5076514;28;20059;-73
2022/10/14 03:36:13;;;;;;;4.63;1.40;;;;;;;;;;5077140;28;20033;-73
2022/10/14 03:38:39;;;;;;;0.95;0.80;;;;;;;;;;5076480;28;20055;-73
2022/10/14 03:41:05;;;;;;;1.27;1.05;;;;;;;;;;5076772;28;20483;-73
2022/10/14 03:43:31;;;;;;;1.52;0.90;;;;;;;;;;5076433;28;20048;-73
2022/10/14 03:45:57;;;;;;;3.45;0.85;;;;;;;;;;5076314;28;20519;-73
2022/10/14 03:48:23;;;;;;;1.17;0.95;;;;;;;;;;5076621;28;20033;-72
2022/10/14 03:50:50;;;;;;;1.85;0.90;;;;;;;;;;5076046;28;20062;-72
2022/10/14 03:53:16;;;;;;;0.82;0.80;;;;;;;;;;5076503;28;20056;-72
2022/10/14 03:55:42;;;;;;;1.08;0.90;;;;;;;;;;5076448;28;20490;-72
2022/10/14 03:58:08;;;;;;;0.98;0.88;;;;;;;;;;5074891;28;20074;-73
2022/10/14 04:00:35;;;;;;;0.90;0.75;;;;;;;;;;5076116;28;20033;-74
2022/10/14 04:03:01;;;;;;;0.82;0.60;;;;;;;;;;5074002;28;20071;-71
2022/10/14 04:05:32;;;;;;;0.50;0.43;;;;;;;;;;5074155;28;20068;-72
2022/10/14 04:08:01;;;;;;;1.05;0.50;;;;;;;;;;5071835;28;20059;-72
2022/10/14 04:10:28;;;;;;;0.75;0.60;;;;;;;;;;5074062;28;20053;-72
2022/10/14 04:12:54;;;;;;;2.95;0.60;;;;;;;;;;5073814;28;20048;-72
2022/10/14 04:15:21;;;;;;;0.73;0.50;;;;;;;;;;5074269;28;20036;-72
2022/10/14 04:17:48;;;;;;;0.77;0.50;;;;;;;;;;5074219;28;20047;-72
2022/10/14 04:20:14;;;;;;;0.40;0.40;;;;;;;;;;5074107;28;20047;-72
2022/10/14 04:22:40;;;;;;;2.35;0.43;;;;;;;;;;5074053;28;20614;-72
2022/10/14 04:25:06;;;;;;;0.50;0.47;;;;;;;;;;5074035;28;20071;-72
2022/10/14 04:27:33;;;;;;;0.30;0.30;;;;;;;;;;5073645;28;20045;-71
2022/10/14 04:29:59;;;;;;;0.40;0.40;;;;;;;;;;5073798;28;20086;-73
2022/10/14 04:32:25;;;;;;;0.25;0.25;;;;;;;;;;5073789;28;20589;-72
2022/10/14 04:34:51;;;;;;;1.55;0.20;;;;;;;;;;5074282;28;20140;-72
2022/10/14 04:37:17;;;;;;;0.20;0.20;;;;;;;;;;5074706;28;20051;-72
2022/10/14 04:39:43;;;;;;;0.28;0.28;;;;;;;;;;5074414;28;20036;-72
2022/10/14 04:42:09;;;;;;;0.20;0.20;;;;;;;;;;5075306;28;20507;-72
2022/10/14 04:44:35;;;;;;;0.65;0.40;;;;;;;;;;5074786;28;20047;-72
2022/10/14 04:47:02;;;;;;;0.30;0.30;;;;;;;;;;5075744;28;20098;-72
2022/10/14 04:49:28;;;;;;;1.00;0.40;;;;;;;;;;5074918;28;20056;-72
2022/10/14 04:51:54;;;;;;;0.50;0.43;;;;;;;;;;5075075;28;20048;-72
2022/10/14 04:54:20;;;;;;;0.40;0.40;;;;;;;;;;5075254;28;20553;-72
2022/10/14 04:56:46;;;;;;;0.40;0.40;;;;;;;;;;5074994;28;20047;-72
2022/10/14 04:59:13;;;;;;;1.08;0.50;;;;;;;;;;5074771;28;20036;-72
2022/10/14 05:01:40;;;;;;;0.57;0.47;;;;;;;;;;5074649;28;20040;-72
2022/10/14 05:04:06;;;;;;;3.45;0.73;;;;;;;;;;5074663;28;20052;-72
2022/10/14 05:06:32;;;;;;;1.02;0.70;;;;;;;;;;5075131;28;20040;-72
2022/10/14 05:08:58;;;;;;;0.93;0.50;;;;;;;;;;5088136;28;20317;-72
2022/10/14 05:11:24;;;;;;;1.15;0.50;;;;;;;;;;5094689;28;20066;-72
2022/10/14 05:13:50;;;;;;;0.40;0.40;;;;;;;;;;5094454;28;20580;-72
2022/10/14 05:16:17;;;;;;;0.40;0.40;;;;;;;;;;5094698;28;20040;-72
2022/10/14 05:18:43;;;;;;;1.00;0.30;;;;;;;;;;5093570;28;20063;-71
2022/10/14 05:21:09;;;;;;;0.20;0.20;;;;;;;;;;5094039;28;20044;-71
2022/10/14 05:23:35;;;;;;;0.38;0.30;;;;;;;;;;5094738;28;20506;-71
2022/10/14 05:26:02;;;;;;;0.40;0.40;;;;;;;;;;5094841;28;20036;-71
2022/10/14 05:28:28;;;;;;;0.35;0.30;;;;;;;;;;5094522;28;20130;-71
2022/10/14 05:30:55;;;;;;;0.73;0.40;;;;;;;;;;5094721;28;20035;-71
2022/10/14 05:33:21;;;;;;;0.40;0.40;;;;;;;;;;5081895;28;20064;-71
2022/10/14 05:35:47;;;;;;;0.55;0.52;;;;;;;;;;5073757;28;20032;-71
2022/10/14 05:38:14;;;;;;;0.47;0.30;;;;;;;;;;5074414;28;20173;-71
2022/10/14 05:40:40;;;;;;;0.47;0.40;;;;;;;;;;5074700;28;20086;-71
2022/10/14 05:43:06;;;;;;;0.50;0.38;;;;;;;;;;5074204;28;20127;-71
2022/10/14 05:45:33;;;;;;;0.65;0.40;;;;;;;;;;5074094;28;20036;-71
2022/10/14 05:48:00;;;;;;;0.63;0.30;;;;;;;;;;5074041;28;20105;-71
2022/10/14 05:50:26;;;;;;;0.40;0.40;;;;;;;;;;5074579;28;20063;-71
2022/10/14 05:52:52;;;;;;;0.38;0.32;;;;;;;;;;5074799;28;20479;-71
2022/10/14 05:55:18;;;;;;;0.73;0.40;;;;;;;;;;5074262;28;20042;-71
2022/10/14 05:57:44;;;;;;;0.38;0.30;;;;;;;;;;5074155;28;20044;-71
2022/10/14 06:00:12;;;;;;;0.40;0.40;;;;;;;;;;5074276;28;20124;-71
2022/10/14 06:02:39;;;;;;;1.15;0.30;;;;;;;;;;5074404;28;20056;-71
2022/10/14 06:05:05;;;;;;;0.88;0.30;;;;;;;;;;5074097;28;20036;-71
2022/10/14 06:07:31;;;;;;;0.85;0.50;;;;;;;;;;5073847;28;20078;-71
2022/10/14 06:09:57;;;;;;;0.63;0.40;;;;;;;;;;5073901;28;20064;-71
2022/10/14 06:12:23;;;;;;;0.25;0.22;;;;;;;;;;5074488;28;20106;-71
2022/10/14 06:14:49;;;;;;;0.55;0.40;;;;;;;;;;5073563;28;20186;-71
2022/10/14 06:17:16;;;;;;;0.30;0.30;;;;;;;;;;5074074;28;20044;-71
2022/10/14 06:19:42;;;;;;;0.30;0.30;;;;;;;;;;5074196;28;20495;-71
2022/10/14 06:22:08;;;;;;;1.35;0.20;;;;;;;;;;5073753;28;20066;-71
2022/10/14 06:24:34;;;;;;;0.22;0.22;;;;;;;;;;5074116;28;20045;-71
2022/10/14 06:27:00;;;;;;;0.95;0.30;;;;;;;;;;5073633;28;20372;-71
2022/10/14 06:29:30;;;;;;;0.20;0.10;;;;;;;;;;5073783;28;20041;-71
2022/10/14 06:31:56;;;;;;;0.30;0.30;;;;;;;;;;5074800;28;20037;-71
2022/10/14 06:34:23;;;;;;;0.38;0.30;;;;;;;;;;5078602;28;20565;-71
2022/10/14 06:36:49;;;;;;;0.65;0.20;;;;;;;;;;5077933;28;20123;-71
2022/10/14 06:39:15;;;;;;;0.38;0.25;;;;;;;;;;5077965;28;20040;-71
2022/10/14 06:41:42;;;;;;;0.32;0.20;;;;;;;;;;5078473;28;20544;-71
2022/10/14 06:44:08;;;;;;;0.20;0.20;;;;;;;;;;5077811;28;20041;-71
2022/10/14 06:46:34;;;;;;;0.30;0.22;;;;;;;;;;5077935;28;20127;-71
2022/10/14 06:49:00;;;;;;;0.20;0.20;;;;;;;;;;5078105;28;20040;-71
2022/10/14 06:51:26;;;;;;;0.38;0.20;;;;;;;;;;5077765;28;20036;-71
2022/10/14 06:53:52;;;;;;;0.43;0.20;;;;;;;;;;5077267;28;20102;-71
2022/10/14 06:56:18;;;;;;;0.63;0.17;;;;;;;;;;5077937;28;20178;-71
2022/10/14 06:58:44;;;;;;;0.13;0.13;;;;;;;;;;5077614;28;20132;-70
2022/10/14 07:01:11;;;;;;;0.20;0.20;;;;;;;;;;5078152;28;20036;-71
2022/10/14 07:03:38;;;;;;;1.67;0.32;;;;;;;;;;5077647;28;20044;-71
2022/10/14 07:06:08;;;;;;;0.35;0.30;;;;;;;;;;5077441;28;20029;-71
2022/10/14 07:08:34;;;;;;;1.70;0.20;;;;;;;;;;5077726;28;20036;-71
2022/10/14 07:11:00;;;;;;;0.82;0.43;;;;;;;;;;5077370;28;20039;-71
2022/10/14 07:13:26;;;;;;;0.85;0.30;;;;;;;;;;5077681;28;20040;-71
2022/10/14 07:15:52;;;;;;;0.30;0.30;;;;;;;;;;5077587;28;20411;-71
2022/10/14 07:18:19;;;;;;;0.40;0.32;;;;;;;;;;5077000;28;20047;-71
2022/10/14 07:20:45;;;;;;;0.20;0.20;;;;;;;;;;5076972;28;20044;-71
2022/10/14 07:23:11;;;;;;;0.57;0.25;;;;;;;;;;5076965;28;20040;-71
2022/10/14 07:25:38;;;;;;;0.20;0.20;;;;;;;;;;5076902;28;20040;-71
2022/10/14 07:28:04;;;;;;;0.43;0.40;;;;;;;;;;5076818;28;20029;-71
2022/10/14 07:30:31;;;;;;;0.60;0.60;;;;;;;;;;5077347;28;20040;-71
2022/10/14 07:32:58;;;;;;;0.60;0.30;;;;;;;;;;5076627;28;20052;-71
2022/10/14 07:35:28;;;;;;;1.33;0.28;;;;;;;;;;5076683;28;20072;-71
2022/10/14 07:37:54;;;;;;;0.30;0.30;;;;;;;;;;5076542;28;20037;-71
2022/10/14 07:40:21;;;;;;;0.35;0.20;;;;;;;;;;5076605;28;20093;-71
2022/10/14 07:42:47;;;;;;;0.60;0.30;;;;;;;;;;5076450;28;20041;-71
2022/10/14 07:45:15;;;;;;;1.65;0.20;;;;;;;;;;5076510;28;20480;-71
2022/10/14 07:47:46;;;;;;;0.30;0.30;;;;;;;;;;5076637;28;20034;-71
2022/10/14 07:50:12;;;;;;;0.35;0.30;;;;;;;;;;5076720;28;20131;-71
2022/10/14 07:52:38;;;;;;;1.05;0.40;;;;;;;;;;5076454;28;20365;-70
2022/10/14 07:55:05;;;;;;;1.15;0.60;;;;;;;;;;5076546;28;20040;-71
2022/10/14 07:57:31;;;;;;;0.22;0.20;;;;;;;;;;5076547;28;20479;-70
2022/10/14 07:59:57;;;;;;;0.98;0.50;;;;;;;;;;5076025;28;20041;-71
2022/10/14 08:02:23;;;;;;;0.95;0.50;;;;;;;;;;5075927;28;20503;-71
2022/10/14 08:04:55;;;;;;;0.30;0.30;;;;;;;;;;5076453;28;20052;-71
2022/10/14 08:07:21;;;;;;;0.50;0.50;;;;;;;;;;5076318;28;20067;-71
2022/10/14 08:09:48;;;;;;;1.65;0.30;;;;;;;;;;5076333;28;20036;-71
2022/10/14 08:12:14;;;;;;;1.05;0.30;;;;;;;;;;5076844;28;20094;-71
2022/10/14 08:14:40;;;;;;;0.40;0.40;;;;;;;;;;5075638;28;20040;-71
2022/10/14 08:17:06;;;;;;;0.45;0.40;;;;;;;;;;5075850;28;20052;-71
2022/10/14 08:19:32;;;;;;;0.60;0.60;;;;;;;;;;5076080;28;20553;-71
2022/10/14 08:21:59;;;;;;;0.80;0.40;;;;;;;;;;5075736;28;20044;-71
2022/10/14 08:24:25;;;;;;;2.53;0.47;;;;;;;;;;5076250;28;20055;-71
2022/10/14 08:26:52;;;;;;;0.90;0.50;;;;;;;;;;5075905;28;20040;-71
2022/10/14 08:29:18;;;;;;;1.40;0.65;;;;;;;;;;5075819;28;20028;-71
2022/10/14 08:31:45;;;;;;;1.05;0.50;;;;;;;;;;5075739;28;20131;-71
2022/10/14 08:34:11;;;;;;;2.42;0.68;;;;;;;;;;5075568;28;20060;-71
2022/10/14 08:36:37;;;;;;;0.70;0.70;;;;;;;;;;5075376;28;20078;-71
2022/10/14 08:39:04;;;;;;;2.90;0.70;;;;;;;;;;5075684;28;20127;-71
2022/10/14 08:41:40;;;;;;;0.50;0.50;;;;;;;;;;5075545;28;20035;-71
2022/10/14 08:44:22;;;;;;;0.45;0.40;;;;;;;;;;5075616;28;20052;-71
2022/10/14 08:46:55;;;;;;;2.65;0.70;;;;;;;;;;5075590;28;20063;-71
2022/10/14 08:49:21;;;;;;;1.85;0.57;;;;;;;;;;5075745;28;20040;-71
2022/10/14 08:51:51;;;;;;;3.42;0.70;;;;;;;;;;5075474;28;20032;-71
2022/10/14 08:54:23;;;;;;;1.70;0.50;;;;;;;;;;5074464;28;20055;-71
2022/10/14 08:56:49;;;;;;;2.35;0.80;;;;;;;;;;5075381;28;20491;-71
2022/10/14 08:59:18;;;;;;;1.48;0.70;;;;;;;;;;5075246;28;20045;-71
2022/10/14 09:02:01;;;;;;;1.67;0.65;;;;;;;;;;5075251;28;20032;-71
2022/10/14 09:04:27;;;;;;;0.68;0.47;;;;;;;;;;5075362;28;20127;-71
2022/10/14 09:06:55;;;;;;;0.75;0.65;;;;;;;;;;5075224;28;20124;-71
2022/10/14 09:09:24;;;;;;;1.05;0.50;;;;;;;;;;5075071;28;20060;-71
2022/10/14 09:11:52;;;;;;;0.90;0.50;;;;;;;;;;5075418;28;20090;-71
2022/10/14 09:14:20;;;;;;;1.45;0.47;;;;;;;;;;5074908;28;20123;-71
2022/10/14 09:16:48;;;;;;;1.25;0.40;;;;;;;;;;5075355;28;20047;-71
2022/10/14 09:19:14;;;;;;;0.75;0.52;;;;;;;;;;5073739;28;20051;-71
2022/10/14 09:21:46;;;;;;;1.92;0.45;;;;;;;;;;5075253;28;20040;-71
2022/10/14 09:24:15;;;;;;;1.05;0.47;;;;;;;;;;5075416;28;20067;-71
2022/10/14 09:26:52;;;;;;;1.05;0.30;;;;;;;;;;5074941;28;20048;-71
2022/10/14 09:29:37;;;;;;;0.50;0.50;;;;;;;;;;5074612;28;20067;-71
2022/10/14 09:32:06;;;;;;;3.08;0.57;;;;;;;;;;5074906;28;20109;-71
2022/10/14 09:34:34;;;;;;;1.50;0.50;;;;;;;;;;5074354;28;20131;-71
2022/10/14 09:37:05;;;;;;;0.20;0.20;;;;;;;;;;5074554;28;20036;-70
2022/10/14 09:39:33;;;;;;;0.80;0.30;;;;;;;;;;5074792;28;20051;-71
2022/10/14 09:42:00;;;;;;;2.17;0.35;;;;;;;;;;5074209;28;20076;-71
2022/10/14 09:44:26;;;;;;;1.10;0.20;;;;;;;;;;5074417;28;20051;-71
2022/10/14 09:46:56;;;;;;;1.00;0.30;;;;;;;;;;5074888;28;20045;-71
2022/10/14 09:49:39;;;;;;;0.73;0.40;;;;;;;;;;5074401;28;20067;-71
2022/10/14 09:52:06;;;;;;;1.48;0.30;;;;;;;;;;5074875;28;20033;-71
2022/10/14 09:54:33;;;;;;;1.20;0.57;;;;;;;;;;5074134;28;20075;-71
2022/10/14 09:57:14;;;;;;;0.50;0.30;;;;;;;;;;5074605;28;20041;-71
2022/10/14 10:00:10;;;;;;;1.30;0.47;;;;;;;;;;5074182;28;20045;-71
2022/10/14 10:02:40;;;;;;;0.50;0.30;;;;;;;;;;5065112;28;20098;-71
2022/10/14 10:05:27;;;;;;;1.17;0.35;;;;;;;;;;5073980;28;20041;-71
2022/10/14 10:08:06;;;;;;;1.08;0.57;;;;;;;;;;5078025;28;20044;-71
2022/10/14 10:10:35;;;;;;;0.50;0.35;;;;;;;;;;5078540;28;20044;-71
2022/10/14 10:13:02;;;;;;;0.75;0.50;;;;;;;;;;5078502;28;20044;-71
2022/10/14 10:15:28;;;;;;;1.65;0.60;;;;;;;;;;5078511;28;20102;-71
2022/10/14 10:17:54;;;;;;;0.93;0.40;;;;;;;;;;5078152;28;20040;-71
2022/10/14 10:20:32;;;;;;;0.35;0.35;;;;;;;;;;5077800;28;20044;-71
2022/10/14 10:23:18;;;;;;;1.95;0.40;;;;;;;;;;5078082;28;20511;-71
2022/10/14 10:25:44;;;;;;;0.70;0.35;;;;;;;;;;5070730;28;20048;-71
2022/10/14 10:28:19;;;;;;;0.40;0.30;;;;;;;;;;5077765;28;20047;-71
2022/10/14 10:31:11;;;;;;;1.35;0.70;;;;;;;;;;5077833;28;20091;-71
2022/10/14 10:33:37;;;;;;;0.52;0.40;;;;;;;;;;5074597;28;20053;-71
2022/10/14 10:36:09;;;;;;;0.55;0.30;;;;;;;;;;5077998;28;20503;-71
2022/10/14 10:38:48;;;;;;;0.45;0.30;;;;;;;;;;5077416;28;20394;-71
2022/10/14 10:41:38;;;;;;;0.30;0.30;;;;;;;;;;5077396;28;20041;-71
2022/10/14 10:44:16;;;;;;;0.40;0.32;;;;;;;;;;5077114;28;20042;-71
2022/10/14 10:47:02;;;;;;;2.30;0.47;;;;;;;;;;5077850;28;20119;-71
2022/10/14 10:49:41;;;;;;;1.08;0.40;;;;;;;;;;5077126;28;20050;-71
2022/10/14 10:52:23;;;;;;;0.73;0.52;;;;;;;;;;5077468;28;20048;-71
2022/10/14 10:55:02;;;;;;;0.73;0.40;;;;;;;;;;5077299;28;20050;-71
2022/10/14 10:57:36;;;;;;;0.40;0.40;;;;;;;;;;5077046;28;20453;-71
2022/10/14 11:00:06;;;;;;;1.63;0.40;;;;;;;;;;5076859;28;20503;-71
2022/10/14 11:02:37;;;;;;;0.70;0.38;;;;;;;;;;5077872;28;20098;-71
2022/10/14 11:05:12;;;;;;;1.13;0.38;;;;;;;;;;5077325;28;20040;-71
2022/10/14 11:13:46;;;;;;;0.43;0.43;;;;;;;;;;5076240;28;20054;-71
2022/10/14 11:16:38;;;;;;;2.53;0.40;;;;;;;;;;5076936;28;20045;-71
2022/10/14 11:19:20;;;;;;;0.75;0.30;;;;;;;;;;5074054;28;20045;-71
2022/10/14 11:22:03;;;;;;;0.70;0.40;;;;;;;;;;5077372;28;20048;-71
2022/10/14 11:24:32;;;;;;;0.68;0.43;;;;;;;;;;5076257;28;20047;-71
2022/10/14 11:27:07;;;;;;;0.20;0.20;;;;;;;;;;5076552;28;20484;-71
2022/10/14 11:29:36;;;;;;;0.40;0.40;;;;;;;;;;5076241;28;20039;-71
2022/10/14 11:32:14;;;;;;;0.20;0.20;;;;;;;;;;5076694;28;20499;-71
2022/10/14 11:35:00;;;;;;;0.85;0.30;;;;;;;;;;5076723;28;20078;-71
2022/10/14 11:37:26;;;;;;;0.35;0.30;;;;;;;;;;5077136;28;20054;-71
2022/10/14 11:40:04;;;;;;;0.32;0.32;;;;;;;;;;5076395;28;20037;-71
2022/10/14 11:42:33;;;;;;;0.40;0.40;;;;;;;;;;5077165;28;20494;-71
2022/10/14 11:45:18;;;;;;;0.50;0.40;;;;;;;;;;5075919;28;20056;-71
2022/10/14 11:47:47;;;;;;;3.08;0.50;;;;;;;;;;5076136;28;20369;-71
2022/10/14 11:50:13;;;;;;;1.45;0.50;;;;;;;;;;5075145;28;20400;-71
2022/10/14 11:52:48;;;;;;;0.35;0.35;;;;;;;;;;5076585;28;20048;-71
2022/10/14 11:55:25;;;;;;;1.17;0.50;;;;;;;;;;5076314;28;20495;-71
2022/10/14 11:57:52;;;;;;;0.30;0.30;;;;;;;;;;5076652;28;20115;-71
2022/10/14 12:00:20;;;;;;;0.32;0.30;;;;;;;;;;5076237;28;20119;-71
2022/10/14 12:03:08;;;;;;;1.30;0.60;;;;;;;;;;5076773;28;20041;-71
2022/10/14 12:05:53;;;;;;;2.30;0.50;;;;;;;;;;5076930;28;20045;-71
2022/10/14 12:08:34;;;;;;;0.60;0.30;;;;;;;;;;5075734;28;20094;-71
2022/10/14 12:11:03;;;;;;;0.60;0.50;;;;;;;;;;5076561;28;20036;-71
2022/10/14 12:13:40;;;;;;;1.13;0.50;;;;;;;;;;5075902;28;20131;-71
2022/10/14 12:16:10;;;;;;;0.43;0.32;;;;;;;;;;5075631;28;20559;-71
2022/10/14 12:18:36;;;;;;;0.57;0.50;;;;;;;;;;5076408;28;20554;-71
2022/10/14 12:21:08;;;;;;;1.88;1.00;;;;;;;;;;5075505;28;20569;-71
2022/10/14 12:23:47;;;;;;;0.30;0.30;;;;;;;;;;5075709;28;20080;-71
2022/10/14 12:26:13;;;;;;;0.90;0.50;;;;;;;;;;5075972;28;20048;-71
2022/10/14 12:28:39;;;;;;;0.43;0.40;;;;;;;;;;5075383;28;20127;-71
2022/10/14 12:31:25;;;;;;;0.50;0.45;;;;;;;;;;5075613;28;20497;-71
2022/10/14 12:34:17;;;;;;;0.70;0.40;;;;;;;;;;5074924;28;20057;-71
2022/10/14 12:36:49;;;;;;;0.57;0.30;;;;;;;;;;5073570;28;20471;-71
2022/10/14 12:39:18;;;;;;;0.98;0.40;;;;;;;;;;5075168;28;20098;-71
2022/10/14 12:41:52;;;;;;;0.47;0.30;;;;;;;;;;5075649;28;20418;-71
2022/10/14 12:44:19;;;;;;;0.30;0.30;;;;;;;;;;5075279;28;20499;-71
2022/10/14 12:46:46;;;;;;;0.50;0.50;;;;;;;;;;5075308;28;20041;-71
2022/10/14 12:49:18;;;;;;;0.40;0.30;;;;;;;;;;5075256;28;20048;-71
2022/10/14 12:51:54;;;;;;;0.30;0.30;;;;;;;;;;5075371;28;20047;-71
2022/10/14 12:54:21;;;;;;;0.38;0.38;;;;;;;;;;5075344;28;20119;-71
2022/10/14 12:56:55;;;;;;;0.40;0.20;;;;;;;;;;5074822;28;20037;-71
2022/10/14 12:59:28;;;;;;;0.30;0.30;;;;;;;;;;5074592;28;20119;-71
2022/10/14 13:01:56;;;;;;;0.20;0.20;;;;;;;;;;5074999;28;20040;-71
2022/10/14 13:04:22;;;;;;;0.22;0.22;;;;;;;;;;5075292;28;20048;-71
2022/10/14 13:07:11;;;;;;;0.75;0.40;;;;;;;;;;5074959;28;20037;-71
2022/10/14 13:09:37;;;;;;;0.30;0.30;;;;;;;;;;5068948;28;20051;-71
2022/10/14 13:12:03;;;;;;;0.55;0.52;;;;;;;;;;5074566;28;20396;-71
2022/10/14 13:14:53;;;;;;;0.52;0.40;;;;;;;;;;5074489;28;20060;-71
2022/10/14 13:17:48;;;;;;;1.20;0.60;;;;;;;;;;5074991;28;20049;-71
2022/10/14 13:20:32;;;;;;;0.60;0.40;;;;;;;;;;5065151;28;20043;-71
2022/10/14 13:23:17;;;;;;;0.47;0.40;;;;;;;;;;5075253;28;20040;-71
2022/10/14 13:25:44;;;;;;;0.50;0.40;;;;;;;;;;5074700;28;20055;-71
2022/10/14 13:28:15;;;;;;;2.30;0.50;;;;;;;;;;5074914;28;20040;-71
2022/10/14 13:30:47;;;;;;;3.20;0.60;;;;;;;;;;5074963;28;20506;-71
2022/10/14 13:33:13;;;;;;;2.58;0.68;;;;;;;;;;5074850;28;20127;-71
2022/10/14 13:35:54;;;;;;;0.75;0.40;;;;;;;;;;5075113;28;20071;-71
2022/10/14 13:38:22;;;;;;;0.60;0.55;;;;;;;;;;5074809;28;20049;-71
2022/10/14 13:40:50;;;;;;;1.50;0.50;;;;;;;;;;5074695;28;20040;-71
2022/10/14 13:43:35;;;;;;;1.15;0.50;;;;;;;;;;5074782;28;20048;-71
2022/10/14 13:46:11;;;;;;;1.15;0.90;;;;;;;;;;5075233;28;20051;-71
2022/10/14 13:48:43;;;;;;;2.22;0.90;;;;;;;;;;5074444;28;20040;-71
2022/10/14 13:51:12;;;;;;;1.88;0.70;;;;;;;;;;5075028;28;20120;-71
2022/10/14 13:53:49;;;;;;;3.33;0.82;;;;;;;;;;5074354;28;20393;-71
2022/10/14 13:56:25;;;;;;;2.15;0.98;;;;;;;;;;5074080;28;20072;-71
2022/10/14 13:58:52;;;;;;;2.25;0.77;;;;;;;;;;5074891;28;20087;-71
2022/10/14 14:01:20;;;;;;;2.88;1.33;;;;;;;;;;5074339;28;20044;-71
2022/10/14 14:03:50;;;;;;;1.73;1.10;;;;;;;;;;5073443;28;20399;-71
2022/10/14 14:06:18;;;;;;;2.13;1.13;;;;;;;;;;5074322;28;20044;-71
2022/10/14 14:08:49;;;;;;;3.22;1.27;;;;;;;;;;5074523;28;20040;-71
2022/10/14 14:11:20;;;;;;;4.10;1.73;;;;;;;;;;5074542;28;20043;-71
2022/10/14 14:13:57;;;;;;;3.88;1.13;;;;;;;;;;5074772;28;20115;-71
2022/10/14 14:16:24;;;;;;;1.98;1.17;;;;;;;;;;5074195;28;20151;-71
2022/10/14 14:18:54;;;;;;;2.20;1.00;;;;;;;;;;5074348;28;20067;-71
2022/10/14 14:21:25;;;;;;;2.35;0.90;;;;;;;;;;5074126;28;20052;-71
2022/10/14 14:23:52;;;;;;;1.88;0.82;;;;;;;;;;5073829;28;20360;-71
2022/10/14 14:26:18;;;;;;;2.53;0.98;;;;;;;;;;5074329;28;20047;-71
2022/10/14 14:28:48;;;;;;;1.75;0.90;;;;;;;;;;5074137;28;20040;-71
2022/10/14 14:31:17;;;;;;;2.15;0.98;;;;;;;;;;5074278;28;20036;-71
2022/10/14 14:33:44;;;;;;;2.22;1.08;;;;;;;;;;5072771;28;20064;-71
2022/10/14 14:36:12;;;;;;;2.58;1.00;;;;;;;;;;5074248;28;20552;-71
2022/10/14 14:38:44;;;;;;;2.55;0.95;;;;;;;;;;5073672;28;20046;-71
2022/10/14 14:41:17;;;;;;;2.63;1.15;;;;;;;;;;5074252;28;20052;-71
2022/10/14 14:43:44;;;;;;;2.72;1.17;;;;;;;;;;5073578;28;20511;-71
2022/10/14 14:46:24;;;;;;;3.30;1.00;;;;;;;;;;5073870;28;20047;-71
2022/10/14 14:48:55;;;;;;;2.65;0.95;;;;;;;;;;5073967;28;20053;-71
2022/10/14 14:51:22;;;;;;;3.72;1.27;;;;;;;;;;5073904;28;20048;-71
2022/10/14 14:53:51;;;;;;;2.15;0.98;;;;;;;;;;5076209;28;20048;-71
2022/10/14 14:56:22;;;;;;;1.25;0.80;;;;;;;;;;5077129;28;20079;-71
2022/10/14 14:58:56;;;;;;;3.47;1.13;;;;;;;;;;5076907;28;20101;-71
2022/10/14 15:01:22;;;;;;;3.55;1.15;;;;;;;;;;5077950;28;20158;-71
2022/10/14 15:03:51;;;;;;;2.42;1.10;;;;;;;;;;5077438;28;20044;-71